createdAt,value
2019-05-15T00:00:48.118Z,94717.73
2019-05-15T00:03:19.564Z,94713.23
2019-05-15T00:05:46.158Z,94716.83
2019-05-15T00:08:13.575Z,94716.69
2019-05-15T00:10:40.922Z,94712.92
2019-05-15T00:13:09.298Z,94716.83
2019-05-15T00:15:37.121Z,94715.80
2019-05-15T00:18:04.500Z,94724.93
2019-05-15T00:20:31.918Z,94724.19
2019-05-15T00:22:59.368Z,94729.73
2019-05-15T00:25:28.317Z,94723.30
2019-05-15T00:27:58.163Z,94724.04
2019-05-15T00:30:25.155Z,94722.98
2019-05-15T00:32:52.564Z,94720.59
2019-05-15T00:35:19.994Z,94715.45
2019-05-15T00:37:49.324Z,94725.65
2019-05-15T00:40:18.381Z,94728.83
2019-05-15T00:42:46.130Z,94718.04
2019-05-15T00:45:13.647Z,94710.22
2019-05-15T00:47:41.084Z,94709.63
2019-05-15T00:50:09.080Z,94716.34
2019-05-15T00:52:38.856Z,94711.41
2019-05-15T00:55:08.657Z,94708.04
2019-05-15T00:57:36.013Z,94699.92
2019-05-15T01:00:04.366Z,94708.62
2019-05-15T01:02:31.798Z,94696.83
2019-05-15T01:04:59.162Z,94707.00
2019-05-15T01:07:28.183Z,94711.69
2019-05-15T01:09:57.815Z,94709.17
2019-05-15T01:12:25.039Z,94710.40
2019-05-15T01:14:52.475Z,94714.13
2019-05-15T01:17:19.832Z,94702.45
2019-05-15T01:19:48.195Z,94699.42
2019-05-15T01:22:15.778Z,94690.74
2019-05-15T01:24:43.163Z,94687.89
2019-05-15T01:27:10.614Z,94682.03
2019-05-15T01:29:44.502Z,94695.38
2019-05-15T01:32:08.431Z,94688.64
2019-05-15T01:34:38.300Z,94689.83
2019-05-15T01:37:05.532Z,94687.73
2019-05-15T01:39:33.006Z,94679.78
2019-05-15T01:42:00.626Z,94682.02
2019-05-15T01:44:28.677Z,94670.63
2019-05-15T01:46:58.892Z,94669.11
2019-05-15T01:49:27.920Z,94670.63
2019-05-15T01:51:55.084Z,94664.63
2019-05-15T01:54:22.511Z,94662.95
2019-05-15T01:56:49.927Z,94658.64
2019-05-15T01:59:18.908Z,94655.75
2019-05-15T02:01:48.539Z,94657.72
2019-05-15T02:04:15.820Z,94654.28
2019-05-15T02:06:43.165Z,94655.61
2019-05-15T02:09:10.602Z,94647.22
2019-05-15T02:11:38.334Z,94641.50
2019-05-15T02:14:08.102Z,94642.09
2019-05-15T02:16:35.261Z,94639.98
2019-05-15T02:19:02.632Z,94641.36
2019-05-15T02:21:30.053Z,94648.41
2019-05-15T02:23:58.776Z,94644.80
2019-05-15T02:26:28.183Z,94640.12
2019-05-15T02:28:55.601Z,94645.11
2019-05-15T02:31:23.010Z,94634.89
2019-05-15T02:33:50.504Z,94625.42
2019-05-15T02:36:20.496Z,94622.59
2019-05-15T02:38:48.625Z,94618.56
2019-05-15T02:41:19.280Z,94638.52
2019-05-15T02:43:45.560Z,94636.43
2019-05-15T02:46:12.993Z,94625.31
2019-05-15T02:48:41.123Z,94619.61
2019-05-15T02:51:09.717Z,94631.00
2019-05-15T02:53:39.519Z,94628.28
2019-05-15T02:56:09.324Z,94623.31
2019-05-15T02:58:36.133Z,94619.09
2019-05-15T03:01:03.656Z,94622.53
2019-05-15T03:03:31.218Z,94630.02
2019-05-15T03:06:00.108Z,94624.47
2019-05-15T03:08:29.727Z,94623.12
2019-05-15T03:10:59.275Z,94616.95
2019-05-15T03:13:29.700Z,94621.15
2019-05-15T03:15:59.482Z,94630.28
2019-05-15T03:18:28.660Z,94638.64
2019-05-15T03:20:55.039Z,94647.91
2019-05-15T03:23:22.427Z,94644.47
2019-05-15T03:25:49.923Z,94653.89
2019-05-15T03:28:19.023Z,94649.23
2019-05-15T03:33:20.899Z,94653.69
2019-05-15T03:35:45.325Z,94649.03
2019-05-15T03:38:12.967Z,94638.53
2019-05-15T03:40:40.362Z,94642.29
2019-05-15T03:43:09.061Z,94644.22
2019-05-15T03:45:40.266Z,94643.17
2019-05-15T03:48:08.980Z,94648.23
2019-05-15T03:50:35.437Z,94653.92
2019-05-15T03:53:02.814Z,94652.72
2019-05-15T03:55:30.234Z,94646.27
2019-05-15T03:57:59.160Z,94652.11
2019-05-15T04:00:29.867Z,94657.05
2019-05-15T04:02:58.808Z,94659.19
2019-05-15T04:05:25.469Z,94648.67
2019-05-15T04:07:53.142Z,94657.20
2019-05-15T04:10:20.725Z,94654.06
2019-05-15T04:12:49.285Z,94652.75
2019-05-15T04:15:18.791Z,94657.41
2019-05-15T04:17:49.040Z,94656.55
2019-05-15T04:20:16.048Z,94656.44
2019-05-15T04:22:43.475Z,94654.96
2019-05-15T04:25:11.488Z,94657.53
2019-05-15T04:27:41.785Z,94658.46
2019-05-15T04:30:10.642Z,94664.00
2019-05-15T04:32:39.852Z,94665.81
2019-05-15T04:35:09.265Z,94668.42
2019-05-15T04:37:40.489Z,94677.13
2019-05-15T04:40:09.467Z,94671.21
2019-05-15T04:42:39.384Z,94677.23
2019-05-15T04:45:09.633Z,94670.03
2019-05-15T04:47:35.248Z,94676.34
2019-05-15T04:50:02.959Z,94677.09
2019-05-15T04:52:30.874Z,94676.62
2019-05-15T04:54:59.861Z,94677.54
2019-05-15T04:57:32.954Z,94674.52
2019-05-15T04:59:58.737Z,94679.19
2019-05-15T05:02:28.759Z,94675.42
2019-05-15T05:04:58.601Z,94676.91
2019-05-15T05:07:25.986Z,94673.34
2019-05-15T05:09:53.378Z,94677.36
2019-05-15T05:12:20.907Z,94676.02
2019-05-15T05:14:48.501Z,94673.61
2019-05-15T05:17:15.908Z,94676.77
2019-05-15T05:19:43.335Z,94676.61
2019-05-15T05:22:10.809Z,94680.81
2019-05-15T05:24:38.542Z,94682.00
2019-05-15T05:27:08.590Z,94684.69
2019-05-15T05:29:35.544Z,94687.10
2019-05-15T05:32:02.946Z,94694.20
2019-05-15T05:34:30.564Z,94694.78
2019-05-15T05:36:58.883Z,94690.56
2019-05-15T05:39:29.269Z,94697.75
2019-05-15T05:41:56.074Z,94701.21
2019-05-15T05:44:24.028Z,94699.55
2019-05-15T05:46:51.437Z,94697.33
2019-05-15T05:49:18.798Z,94697.92
2019-05-15T05:51:48.141Z,94710.08
2019-05-15T05:54:17.976Z,94709.65
2019-05-15T05:56:44.829Z,94710.25
2019-05-15T05:59:12.296Z,94704.23
2019-05-15T06:01:43.882Z,94712.51
2019-05-15T06:04:09.017Z,94696.75
2019-05-15T06:06:38.467Z,94696.63
2019-05-15T06:09:06.205Z,94705.45
2019-05-15T06:11:33.612Z,94712.22
2019-05-15T06:14:01.023Z,94718.67
2019-05-15T06:16:28.736Z,94723.92
2019-05-15T06:18:58.669Z,94714.91
2019-05-15T06:21:28.379Z,94716.43
2019-05-15T06:23:58.067Z,94718.38
2019-05-15T06:26:24.556Z,94725.88
2019-05-15T06:28:51.977Z,94725.29
2019-05-15T06:31:19.415Z,94726.50
2019-05-15T06:33:48.885Z,94721.23
2019-05-15T06:36:17.981Z,94730.23
2019-05-15T06:38:48.171Z,94725.11
2019-05-15T06:41:15.115Z,94718.30
2019-05-15T06:43:42.560Z,94721.71
2019-05-15T06:46:09.930Z,94723.09
2019-05-15T06:48:37.969Z,94717.16
2019-05-15T06:51:05.646Z,94716.47
2019-05-15T06:53:33.057Z,94717.91
2019-05-15T06:56:00.642Z,94705.75
2019-05-15T06:58:28.963Z,94701.98
2019-05-15T07:00:59.014Z,94695.38
2019-05-15T07:03:29.198Z,94704.94
2019-05-15T07:05:55.396Z,94694.33
2019-05-15T07:08:22.819Z,94704.64
2019-05-15T07:10:50.264Z,94715.52
2019-05-15T07:13:18.317Z,94721.23
2019-05-15T07:15:46.305Z,94726.27
2019-05-15T07:18:13.661Z,94720.09
2019-05-15T07:20:41.206Z,94727.86
2019-05-15T07:23:09.002Z,94721.52
2019-05-15T07:25:38.973Z,94722.25
2019-05-15T07:28:08.597Z,94712.30
2019-05-15T07:30:35.205Z,94710.67
2019-05-15T07:33:02.659Z,94718.55
2019-05-15T07:35:30.509Z,94722.08
2019-05-15T07:37:58.773Z,94721.53
2019-05-15T07:40:29.546Z,94726.83
2019-05-15T07:42:58.581Z,94724.45
2019-05-15T07:45:28.228Z,94716.05
2019-05-15T07:47:58.327Z,94716.69
2019-05-15T07:50:25.010Z,94709.33
2019-05-15T07:52:52.445Z,94702.38
2019-05-15T07:55:20.014Z,94694.63
2019-05-15T07:57:49.630Z,94707.83
2019-05-15T08:00:18.799Z,94705.66
2019-05-15T08:02:48.068Z,94705.38
2019-05-15T08:05:18.282Z,94711.02
2019-05-15T08:07:45.841Z,94712.30
2019-05-15T08:10:13.795Z,94712.37
2019-05-15T08:12:41.479Z,94705.97
2019-05-15T08:15:09.929Z,94708.92
2019-05-15T08:17:58.032Z,94710.42
2019-05-15T08:20:12.345Z,94708.92
2019-05-15T08:22:39.769Z,94715.41
2019-05-15T08:25:12.960Z,94714.39
2019-05-15T08:27:38.692Z,94698.20
2019-05-15T08:30:08.907Z,94709.52
2019-05-15T08:32:38.699Z,94713.84
2019-05-15T08:35:08.063Z,94701.89
2019-05-15T08:37:38.298Z,94708.00
2019-05-15T08:40:08.574Z,94717.47
2019-05-15T08:42:41.692Z,94719.17
2019-05-15T08:45:05.604Z,94709.43
2019-05-15T08:47:32.967Z,94706.75
2019-05-15T08:50:00.402Z,94704.56
2019-05-15T08:52:28.288Z,94701.50
2019-05-15T08:54:55.887Z,94705.79
2019-05-15T08:57:23.296Z,94710.09
2019-05-15T08:59:50.737Z,94711.50
2019-05-15T09:02:18.657Z,94711.81
2019-05-15T09:04:48.499Z,94711.63
2019-05-15T09:07:17.967Z,94715.44
2019-05-15T09:09:44.823Z,94723.38
2019-05-15T09:12:12.233Z,94719.31
2019-05-15T09:14:40.251Z,94720.64
2019-05-15T09:17:08.669Z,94719.70
2019-05-15T09:19:38.633Z,94721.91
2019-05-15T09:22:05.611Z,94716.44
2019-05-15T09:24:33.045Z,94717.76
2019-05-15T09:27:00.498Z,94725.58
2019-05-15T09:29:28.550Z,94721.08
2019-05-15T09:31:58.674Z,94726.47
2019-05-15T09:34:25.704Z,94726.69
2019-05-15T09:36:53.160Z,94719.08
2019-05-15T09:39:20.621Z,94713.64
2019-05-15T09:41:48.756Z,94708.73
2019-05-15T09:44:21.012Z,94721.05
2019-05-15T09:46:45.751Z,94711.93
2019-05-15T09:49:13.198Z,94701.74
2019-05-15T09:51:40.651Z,94699.77
2019-05-15T09:54:08.255Z,94700.69
2019-05-15T09:56:38.309Z,94701.09
2019-05-15T09:59:05.079Z,94699.98
2019-05-15T10:01:32.530Z,94699.36
2019-05-15T10:03:59.965Z,94708.33
2019-05-15T10:06:28.662Z,94717.23
2019-05-15T10:08:56.555Z,94714.53
2019-05-15T10:11:23.978Z,94712.84
2019-05-15T10:13:51.361Z,94714.14
2019-05-15T10:16:19.768Z,94713.41
2019-05-15T10:18:50.780Z,94699.84
2019-05-15T10:21:18.616Z,94699.25
2019-05-15T10:23:48.854Z,94692.40
2019-05-15T10:26:15.593Z,94682.83
2019-05-15T10:28:43.022Z,94669.23
2019-05-15T10:31:10.457Z,94686.66
2019-05-15T10:33:39.276Z,94691.62
2019-05-15T10:36:08.337Z,94682.33
2019-05-15T10:38:38.951Z,94681.72
2019-05-15T10:41:13.912Z,94679.69
2019-05-15T10:43:35.432Z,94683.22
2019-05-15T10:46:02.945Z,94664.65
2019-05-15T10:48:30.374Z,94647.15
2019-05-15T10:51:01.848Z,94661.37
2019-05-15T10:53:29.663Z,94660.56
2019-05-15T10:55:59.626Z,94655.78
2019-05-15T10:58:28.468Z,94664.55
2019-05-15T11:00:55.655Z,94664.81
2019-05-15T11:03:23.082Z,94656.73
2019-05-15T11:05:50.527Z,94652.63
2019-05-15T11:08:18.914Z,94670.77
2019-05-15T11:10:49.325Z,94657.11
2019-05-15T11:13:18.406Z,94657.88
2019-05-15T11:15:45.244Z,94657.57
2019-05-15T11:18:12.749Z,94653.36
2019-05-15T11:20:41.246Z,94653.13
2019-05-15T11:23:15.073Z,94650.54
2019-05-15T11:25:42.996Z,94640.31
2019-05-15T11:28:10.473Z,94640.83
2019-05-15T11:30:39.310Z,94643.16
2019-05-15T11:33:09.495Z,94644.08
2019-05-15T11:35:39.088Z,94638.13
2019-05-15T11:38:05.751Z,94632.83
2019-05-15T11:40:33.790Z,94624.59
2019-05-15T11:43:01.285Z,94623.16
2019-05-15T11:45:29.168Z,94622.84
2019-05-15T11:47:56.661Z,94622.52
2019-05-15T11:50:24.192Z,94618.08
2019-05-15T11:52:51.608Z,94610.28
2019-05-15T11:55:19.224Z,94612.23
2019-05-15T11:57:50.934Z,94616.58
2019-05-15T12:00:26.503Z,94624.07
2019-05-15T12:02:47.431Z,94621.84
2019-05-15T12:05:15.279Z,94622.73
2019-05-15T12:07:42.762Z,94617.61
2019-05-15T12:10:11.044Z,94610.19
2019-05-15T12:12:38.832Z,94609.70
2019-05-15T12:15:07.030Z,94617.22
2019-05-15T12:17:34.484Z,94614.80
2019-05-15T12:20:06.187Z,94618.05
2019-05-15T12:22:31.658Z,94614.02
2019-05-15T12:25:00.578Z,94624.94
2019-05-15T12:27:28.567Z,94622.64
2019-05-15T12:29:55.938Z,94636.67
2019-05-15T12:32:31.220Z,94633.08
2019-05-15T12:34:52.827Z,94644.88
2019-05-15T12:37:20.277Z,94635.25
2019-05-15T12:39:49.294Z,94634.45
2019-05-15T12:59:44.711Z,94638.39
2019-05-15T13:02:11.902Z,94640.60
2019-05-15T13:04:39.347Z,94635.91
2019-05-15T13:07:13.793Z,94637.50
2019-05-15T13:09:38.024Z,94640.95
2019-05-15T13:12:05.423Z,94650.66
2019-05-15T13:14:32.785Z,94651.79
2019-05-15T13:17:00.202Z,94640.11
2019-05-15T13:19:28.432Z,94640.23
2019-05-15T13:21:57.951Z,94651.05
2019-05-15T13:24:28.180Z,94634.87
2019-05-15T13:26:54.907Z,94629.61
2019-05-15T13:29:22.408Z,94618.99
2019-05-15T13:31:49.828Z,94621.19
2019-05-15T13:34:19.744Z,94650.80
2019-05-15T13:36:48.592Z,94662.73
2019-05-15T13:39:18.236Z,94667.40
2019-05-15T13:41:45.382Z,94657.10
2019-05-15T13:44:12.757Z,94646.88
2019-05-15T13:46:40.172Z,94646.46
2019-05-15T13:49:08.373Z,94648.00
2019-05-15T13:51:38.174Z,94672.55
2019-05-15T13:54:05.352Z,94675.05
2019-05-15T13:56:32.793Z,94681.60
2019-05-15T13:59:00.231Z,94670.17
2019-05-15T14:01:28.620Z,94662.58
2019-05-15T14:03:58.628Z,94667.86
2019-05-15T14:06:25.713Z,94655.62
2019-05-15T14:08:53.173Z,94642.35
2019-05-15T14:11:22.090Z,94651.22
2019-05-15T14:13:49.725Z,94662.39
2019-05-15T14:16:19.239Z,94672.85
2019-05-15T14:18:47.999Z,94662.41
2019-05-15T14:21:18.265Z,94647.11
2019-05-15T14:23:44.905Z,94639.16
2019-05-15T14:26:18.961Z,94629.83
2019-05-15T14:28:41.688Z,94629.63
2019-05-15T14:31:09.909Z,94636.18
2019-05-15T14:33:37.989Z,94637.33
2019-05-15T14:36:05.615Z,94648.11
2019-05-15T14:38:33.526Z,94651.72
2019-05-15T14:41:00.989Z,94638.48
2019-05-15T14:43:29.418Z,94635.87
2019-05-15T14:45:58.689Z,94633.30
2019-05-15T14:48:28.099Z,94633.20
2019-05-15T14:50:55.622Z,94643.78
2019-05-15T14:53:23.200Z,94654.83
2019-05-15T14:55:50.623Z,94637.30
2019-05-15T14:58:19.893Z,94634.81
2019-05-15T15:00:49.962Z,94630.06
2019-05-15T15:03:18.377Z,94630.06
2019-05-15T15:05:45.908Z,94622.52
2019-05-15T15:08:23.613Z,94628.44
2019-05-15T15:10:42.700Z,94641.08
2019-05-15T15:13:10.164Z,94656.44
2019-05-15T15:15:38.103Z,94650.51
2019-05-15T15:18:08.024Z,94647.72
2019-05-15T15:20:35.231Z,94635.89
2019-05-15T15:23:02.670Z,94635.52
2019-05-15T15:25:30.106Z,94637.59
2019-05-15T15:27:58.658Z,94631.54
2019-05-15T15:30:26.518Z,94634.63
2019-05-15T15:32:54.030Z,94635.58
2019-05-15T15:35:21.470Z,94633.70
2019-05-15T15:37:48.938Z,94644.39
2019-05-15T15:40:18.756Z,94641.03
2019-05-15T15:42:48.375Z,94632.27
2019-05-15T15:45:15.965Z,94637.14
2019-05-15T15:47:43.363Z,94645.48
2019-05-15T15:50:10.889Z,94654.86
2019-05-15T15:52:38.844Z,94657.76
2019-05-15T15:55:08.928Z,94645.22
2019-05-15T15:57:39.265Z,94634.61
2019-05-15T16:00:08.645Z,94627.95
2019-05-15T16:02:35.719Z,94636.95
2019-05-15T16:05:03.472Z,94638.02
2019-05-15T16:07:31.245Z,94636.06
2019-05-15T16:09:58.945Z,94640.15
2019-05-15T16:12:27.822Z,94640.15
2019-05-15T16:14:55.290Z,94660.38
2019-05-15T16:17:22.717Z,94649.08
2019-05-15T16:19:50.160Z,94648.36
2019-05-15T16:22:19.026Z,94638.63
2019-05-15T16:24:49.009Z,94641.87
2019-05-15T16:27:17.948Z,94645.69
2019-05-15T16:29:45.458Z,94642.91
2019-05-15T16:32:12.891Z,94635.05
2019-05-15T16:34:40.382Z,94630.55
2019-05-15T16:37:08.914Z,94631.42
2019-05-15T16:39:38.233Z,94643.57
2019-05-15T16:42:05.984Z,94644.51
2019-05-15T16:44:33.664Z,94645.61
2019-05-15T16:47:01.066Z,94647.86
2019-05-15T16:49:28.614Z,94659.70
2019-05-15T16:51:58.166Z,94666.70
2019-05-15T16:54:25.476Z,94666.22
2019-05-15T16:56:53.059Z,94649.17
2019-05-15T16:59:20.804Z,94656.54
2019-05-15T17:01:48.907Z,94668.69
2019-05-15T17:04:18.231Z,94684.27
2019-05-15T17:06:46.053Z,94693.16
2019-05-15T17:09:21.153Z,94698.92
2019-05-15T17:11:42.920Z,94692.71
2019-05-15T17:14:10.339Z,94696.98
2019-05-15T17:16:38.763Z,94693.20
2019-05-15T17:19:08.565Z,94693.48
2019-05-15T17:21:35.569Z,94691.53
2019-05-15T17:24:03.057Z,94692.23
2019-05-15T17:26:30.520Z,94698.98
2019-05-15T17:28:58.299Z,94706.41
2019-05-15T17:31:25.823Z,94697.62
2019-05-15T17:33:53.259Z,94707.73
2019-05-15T17:36:20.664Z,94713.75
2019-05-15T17:38:48.918Z,94723.67
2019-05-15T17:41:16.504Z,94713.14
2019-05-15T17:43:44.017Z,94714.49
2019-05-15T17:46:11.645Z,94718.43
2019-05-15T17:48:39.094Z,94720.19
2019-05-15T17:51:08.690Z,94726.28
2019-05-15T17:53:38.071Z,94733.63
2019-05-15T17:56:05.285Z,94717.03
2019-05-15T17:58:32.746Z,94716.23
2019-05-15T18:01:00.215Z,94720.61
2019-05-15T18:03:28.819Z,94720.19
2019-05-15T18:05:58.839Z,94731.06
2019-05-15T18:08:28.483Z,94742.16
2019-05-15T18:10:55.236Z,94749.69
2019-05-15T18:13:22.774Z,94755.38
2019-05-15T18:15:50.237Z,94752.25
2019-05-15T18:18:18.674Z,94752.02
2019-05-15T18:20:48.592Z,94754.66
2019-05-15T18:23:15.693Z,94764.64
2019-05-15T18:25:43.128Z,94761.03
2019-05-15T18:28:10.587Z,94766.81
2019-05-15T18:30:38.984Z,94759.48
2019-05-15T18:33:08.659Z,94773.13
2019-05-15T18:35:37.984Z,94770.75
2019-05-15T18:38:05.651Z,94761.58
2019-05-15T18:40:33.312Z,94758.21
2019-05-15T18:43:00.805Z,94763.14
2019-05-15T18:45:28.941Z,94763.35
2019-05-15T18:47:58.657Z,94759.53
2019-05-15T18:50:27.988Z,94752.27
2019-05-15T18:52:58.118Z,94749.55
2019-05-15T18:55:25.293Z,94745.28
2019-05-15T18:57:52.696Z,94745.81
2019-05-15T19:00:21.930Z,94748.31
2019-05-15T19:02:49.461Z,94752.93
2019-05-15T19:05:18.578Z,94755.33
2019-05-15T19:07:48.535Z,94753.78
2019-05-15T19:10:18.794Z,94763.74
2019-05-15T19:12:48.360Z,94760.48
2019-05-15T19:15:17.946Z,94765.19
2019-05-15T19:17:47.466Z,94757.50
2019-05-15T19:20:15.015Z,94748.23
2019-05-15T19:22:42.875Z,94754.06
2019-05-15T19:25:11.091Z,94743.05
2019-05-15T19:27:39.442Z,94747.64
2019-05-15T19:30:08.338Z,94747.22
2019-05-15T19:32:35.971Z,94750.13
2019-05-15T19:35:04.178Z,94751.52
2019-05-15T19:37:33.810Z,94755.26
2019-05-15T19:40:01.037Z,94768.29
2019-05-15T19:42:28.803Z,94771.06
2019-05-15T19:44:58.825Z,94775.53
2019-05-15T19:47:25.870Z,94771.33
2019-05-15T19:49:53.451Z,94769.48
2019-05-15T19:52:20.878Z,94772.61
2019-05-15T19:54:48.594Z,94771.20
2019-05-15T19:57:18.495Z,94770.20
2019-05-15T19:59:45.739Z,94766.45
2019-05-15T20:02:13.177Z,94770.19
2019-05-15T20:04:40.624Z,94766.97
2019-05-15T20:07:08.127Z,94769.42
2019-05-15T20:09:35.532Z,94765.21
2019-05-15T20:12:03.078Z,94758.03
2019-05-15T20:14:30.481Z,94772.81
2019-05-15T20:16:58.915Z,94772.85
2019-05-15T20:19:28.688Z,94770.45
2019-05-15T20:21:55.931Z,94775.75
2019-05-15T20:24:23.363Z,94781.47
2019-05-15T20:26:50.728Z,94775.16
2019-05-15T20:29:18.340Z,94785.89
2019-05-15T20:31:48.310Z,94777.88
2019-05-15T20:34:15.095Z,94773.89
2019-05-15T20:36:42.702Z,94772.95
2019-05-15T20:39:10.238Z,94779.23
2019-05-15T20:41:38.456Z,94780.76
2019-05-15T20:44:08.686Z,94768.97
2019-05-15T20:46:35.753Z,94764.26
2019-05-15T20:49:03.179Z,94770.52
2019-05-15T20:51:30.782Z,94758.11
2019-05-15T20:53:59.479Z,94755.69
2019-05-15T20:56:28.211Z,94749.41
2019-05-15T20:58:55.737Z,94751.15
2019-05-15T21:01:23.100Z,94741.02
2019-05-15T21:03:51.012Z,94749.53
2019-05-15T21:06:18.575Z,94739.22
2019-05-15T21:08:46.033Z,94730.09
2019-05-15T21:11:13.971Z,94718.68
2019-05-15T21:13:41.415Z,94711.55
2019-05-15T21:16:08.907Z,94711.12
2019-05-15T21:18:38.013Z,94714.31
2019-05-15T21:21:10.247Z,94712.76
2019-05-15T21:23:34.908Z,94718.48
2019-05-15T21:26:02.351Z,94720.48
2019-05-15T21:28:30.151Z,94713.14
2019-05-15T21:30:58.157Z,94719.59
2019-05-15T21:33:25.770Z,94729.72
2019-05-15T21:35:53.258Z,94723.80
2019-05-15T21:38:21.398Z,94724.91
2019-05-15T21:40:49.004Z,94738.05
2019-05-15T21:43:17.824Z,94733.47
2019-05-15T21:45:45.455Z,94730.19
2019-05-15T21:48:12.901Z,94739.55
2019-05-15T21:50:40.324Z,94734.37
2019-05-15T21:53:07.814Z,94738.66
2019-05-15T21:55:35.231Z,94728.02
2019-05-15T21:58:03.664Z,94724.88
2019-05-15T22:00:35.209Z,94735.22
2019-05-15T22:03:02.838Z,94728.36
2019-05-15T22:05:30.639Z,94731.07
2019-05-15T22:07:58.768Z,94731.29
2019-05-15T22:10:26.693Z,94728.70
2019-05-15T22:12:56.121Z,94736.33
2019-05-15T22:15:23.642Z,94734.87
2019-05-15T22:17:51.158Z,94738.95
2019-05-15T22:20:19.215Z,94736.88
2019-05-15T22:22:50.348Z,94736.45
2019-05-15T22:25:18.785Z,94739.16
2019-05-15T22:27:45.818Z,94739.60
2019-05-15T22:30:14.400Z,94734.55
2019-05-15T22:32:41.970Z,94739.35
2019-05-15T22:35:13.849Z,94742.75
2019-05-15T22:37:41.563Z,94742.44
2019-05-15T22:40:09.494Z,94731.42
2019-05-15T22:42:39.098Z,94723.14
2019-05-15T22:45:09.014Z,94727.09
2019-05-15T22:47:38.606Z,94728.72
2019-05-15T22:50:08.372Z,94731.02
2019-05-15T22:52:38.559Z,94721.70
2019-05-15T22:55:05.905Z,94713.85
2019-05-15T22:57:33.309Z,94714.75
2019-05-15T23:00:00.718Z,94710.09
2019-05-15T23:02:28.123Z,94706.89
2019-05-15T23:04:55.533Z,94698.45
2019-05-15T23:07:23.075Z,94699.03
2019-05-15T23:09:50.485Z,94694.83
2019-05-15T23:12:18.327Z,94715.78
2019-05-15T23:14:45.866Z,94688.73
2019-05-15T23:17:13.211Z,94693.47
2019-05-15T23:19:40.636Z,94690.19
2019-05-15T23:22:08.452Z,94689.45
2019-05-15T23:24:35.887Z,94672.59
2019-05-15T23:27:03.425Z,94681.63
2019-05-15T23:29:30.850Z,94689.66
2019-05-15T23:31:58.504Z,94667.10
2019-05-15T23:34:27.972Z,94671.23
2019-05-15T23:36:57.575Z,94670.47
2019-05-15T23:39:24.617Z,94680.58
2019-05-15T23:41:52.038Z,94677.53
2019-05-15T23:44:19.680Z,94684.64
2019-05-15T23:46:48.772Z,94673.03
2019-05-15T23:49:16.268Z,94670.50
2019-05-15T23:51:43.681Z,94665.56
2019-05-15T23:54:11.070Z,94658.91
2019-05-15T23:56:39.064Z,94650.85
2019-05-15T23:59:08.394Z,94658.48
